sensor_id;sensor_type;location;lat;lon;timestamp;P1;durP1;ratioP1;P2;durP2;ratioP2
24483;SDS011;12643;51.620;7.548;2023-04-15T00:03:34;10.10;;;6.25;;
24483;SDS011;12643;51.620;7.548;2023-04-15T00:06:02;10.43;;;6.90;;
24483;SDS011;12643;51.620;7.548;2023-04-15T00:08:31;21.55;;;13.07;;
24483;SDS011;12643;51.620;7.548;2023-04-15T00:10:59;19.95;;;11.27;;
24483;SDS011;12643;51.620;7.548;2023-04-15T00:13:30;14.25;;;8.00;;
24483;SDS011;12643;51.620;7.548;2023-04-15T00:15:58;11.73;;;7.85;;
24483;SDS011;12643;51.620;7.548;2023-04-15T00:18:26;9.10;;;7.30;;
24483;SDS011;12643;51.620;7.548;2023-04-15T00:20:57;11.05;;;7.93;;
24483;SDS011;12643;51.620;7.548;2023-04-15T00:23:28;9.65;;;7.22;;
24483;SDS011;12643;51.620;7.548;2023-04-15T00:25:56;11.10;;;7.65;;
24483;SDS011;12643;51.620;7.548;2023-04-15T00:28:23;14.32;;;8.10;;
24483;SDS011;12643;51.620;7.548;2023-04-15T00:30:52;11.25;;;7.68;;
24483;SDS011;12643;51.620;7.548;2023-04-15T00:33:21;10.80;;;6.80;;
24483;SDS011;12643;51.620;7.548;2023-04-15T00:35:48;12.13;;;7.47;;
24483;SDS011;12643;51.620;7.548;2023-04-15T00:38:18;9.32;;;6.82;;
24483;SDS011;12643;51.620;7.548;2023-04-15T00:40:47;11.83;;;7.93;;
24483;SDS011;12643;51.620;7.548;2023-04-15T00:43:15;9.55;;;6.05;;
24483;SDS011;12643;51.620;7.548;2023-04-15T00:48:14;11.13;;;7.63;;
24483;SDS011;12643;51.620;7.548;2023-04-15T00:50:42;10.20;;;6.95;;
24483;SDS011;12643;51.620;7.548;2023-04-15T00:53:13;13.03;;;6.80;;
24483;SDS011;12643;51.620;7.548;2023-04-15T00:55:46;9.25;;;6.88;;
24483;SDS011;12643;51.620;7.548;2023-04-15T00:58:15;11.23;;;7.28;;
24483;SDS011;12643;51.620;7.548;2023-04-15T01:00:44;8.85;;;6.25;;
24483;SDS011;12643;51.620;7.548;2023-04-15T01:03:18;9.60;;;6.20;;
24483;SDS011;12643;51.620;7.548;2023-04-15T01:05:50;9.27;;;5.97;;
24483;SDS011;12643;51.620;7.548;2023-04-15T01:08:28;9.57;;;6.38;;
24483;SDS011;12643;51.620;7.548;2023-04-15T01:10:59;9.95;;;6.15;;
24483;SDS011;12643;51.620;7.548;2023-04-15T01:13:30;9.93;;;6.18;;
24483;SDS011;12643;51.620;7.548;2023-04-15T01:16:01;9.85;;;6.60;;
24483;SDS011;12643;51.620;7.548;2023-04-15T01:18:30;7.00;;;5.72;;
24483;SDS011;12643;51.620;7.548;2023-04-15T01:21:00;8.60;;;5.90;;
24483;SDS011;12643;51.620;7.548;2023-04-15T01:23:29;7.53;;;6.07;;
24483;SDS011;12643;51.620;7.548;2023-04-15T01:26:02;11.32;;;6.45;;
24483;SDS011;12643;51.620;7.548;2023-04-15T01:28:31;9.40;;;7.20;;
24483;SDS011;12643;51.620;7.548;2023-04-15T01:31:06;9.02;;;6.95;;
24483;SDS011;12643;51.620;7.548;2023-04-15T01:33:36;9.48;;;7.03;;
24483;SDS011;12643;51.620;7.548;2023-04-15T01:36:05;13.10;;;6.82;;
24483;SDS011;12643;51.620;7.548;2023-04-15T01:38:35;11.95;;;7.55;;
24483;SDS011;12643;51.620;7.548;2023-04-15T01:41:07;9.85;;;7.13;;
24483;SDS011;12643;51.620;7.548;2023-04-15T01:43:35;9.73;;;6.97;;
24483;SDS011;12643;51.620;7.548;2023-04-15T01:46:04;8.68;;;6.35;;
24483;SDS011;12643;51.620;7.548;2023-04-15T01:48:34;8.90;;;7.00;;
24483;SDS011;12643;51.620;7.548;2023-04-15T01:51:03;10.18;;;7.15;;
24483;SDS011;12643;51.620;7.548;2023-04-15T01:53:31;14.38;;;7.50;;
24483;SDS011;12643;51.620;7.548;2023-04-15T01:56:00;13.18;;;8.10;;
24483;SDS011;12643;51.620;7.548;2023-04-15T01:58:32;10.32;;;7.30;;
24483;SDS011;12643;51.620;7.548;2023-04-15T02:01:00;8.90;;;6.97;;
24483;SDS011;12643;51.620;7.548;2023-04-15T02:03:29;9.50;;;7.18;;
24483;SDS011;12643;51.620;7.548;2023-04-15T02:05:57;11.50;;;7.47;;
24483;SDS011;12643;51.620;7.548;2023-04-15T02:10:57;11.15;;;6.53;;
24483;SDS011;12643;51.620;7.548;2023-04-15T02:13:26;8.52;;;6.43;;
24483;SDS011;12643;51.620;7.548;2023-04-15T02:15:56;9.23;;;6.75;;
24483;SDS011;12643;51.620;7.548;2023-04-15T02:18:25;10.57;;;6.82;;
24483;SDS011;12643;51.620;7.548;2023-04-15T02:20:53;8.77;;;7.25;;
24483;SDS011;12643;51.620;7.548;2023-04-15T02:23:21;10.38;;;7.07;;
24483;SDS011;12643;51.620;7.548;2023-04-15T02:25:49;10.27;;;6.80;;
24483;SDS011;12643;51.620;7.548;2023-04-15T02:28:17;8.10;;;6.88;;
24483;SDS011;12643;51.620;7.548;2023-04-15T02:30:46;8.60;;;6.40;;
24483;SDS011;12643;51.620;7.548;2023-04-15T02:33:19;10.90;;;7.10;;
24483;SDS011;12643;51.620;7.548;2023-04-15T02:35:48;7.43;;;6.35;;
24483;SDS011;12643;51.620;7.548;2023-04-15T02:38:17;8.45;;;6.50;;
24483;SDS011;12643;51.620;7.548;2023-04-15T02:40:47;7.95;;;6.47;;
24483;SDS011;12643;51.620;7.548;2023-04-15T02:43:17;10.05;;;7.05;;
24483;SDS011;12643;51.620;7.548;2023-04-15T02:45:45;10.32;;;7.18;;
24483;SDS011;12643;51.620;7.548;2023-04-15T02:48:13;10.60;;;7.45;;
24483;SDS011;12643;51.620;7.548;2023-04-15T02:50:45;12.15;;;7.47;;
24483;SDS011;12643;51.620;7.548;2023-04-15T02:53:15;11.27;;;8.02;;
24483;SDS011;12643;51.620;7.548;2023-04-15T02:55:44;11.40;;;7.97;;
24483;SDS011;12643;51.620;7.548;2023-04-15T02:58:13;13.82;;;8.70;;
24483;SDS011;12643;51.620;7.548;2023-04-15T03:00:43;12.73;;;9.23;;
24483;SDS011;12643;51.620;7.548;2023-04-15T03:03:11;12.73;;;8.73;;
24483;SDS011;12643;51.620;7.548;2023-04-15T03:05:41;13.30;;;9.13;;
24483;SDS011;12643;51.620;7.548;2023-04-15T03:08:12;17.50;;;9.50;;
24483;SDS011;12643;51.620;7.548;2023-04-15T03:10:40;12.52;;;9.63;;
24483;SDS011;12643;51.620;7.548;2023-04-15T03:13:10;15.17;;;10.13;;
24483;SDS011;12643;51.620;7.548;2023-04-15T03:15:38;16.15;;;9.65;;
24483;SDS011;12643;51.620;7.548;2023-04-15T03:18:10;13.20;;;9.93;;
24483;SDS011;12643;51.620;7.548;2023-04-15T03:20:38;10.73;;;9.05;;
24483;SDS011;12643;51.620;7.548;2023-04-15T03:23:08;12.60;;;10.27;;
24483;SDS011;12643;51.620;7.548;2023-04-15T03:25:38;13.63;;;10.23;;
24483;SDS011;12643;51.620;7.548;2023-04-15T03:28:07;16.88;;;10.18;;
24483;SDS011;12643;51.620;7.548;2023-04-15T03:30:34;16.20;;;11.07;;
24483;SDS011;12643;51.620;7.548;2023-04-15T03:33:02;13.15;;;10.38;;
24483;SDS011;12643;51.620;7.548;2023-04-15T03:35:32;12.95;;;10.43;;
24483;SDS011;12643;51.620;7.548;2023-04-15T03:37:59;16.98;;;10.27;;
24483;SDS011;12643;51.620;7.548;2023-04-15T03:40:28;14.63;;;10.07;;
24483;SDS011;12643;51.620;7.548;2023-04-15T03:42:58;18.90;;;10.68;;
24483;SDS011;12643;51.620;7.548;2023-04-15T03:45:26;13.07;;;9.48;;
24483;SDS011;12643;51.620;7.548;2023-04-15T03:47:55;14.73;;;11.20;;
24483;SDS011;12643;51.620;7.548;2023-04-15T03:50:24;14.13;;;10.43;;
24483;SDS011;12643;51.620;7.548;2023-04-15T03:52:53;12.35;;;10.20;;
24483;SDS011;12643;51.620;7.548;2023-04-15T03:55:22;14.50;;;10.18;;
24483;SDS011;12643;51.620;7.548;2023-04-15T03:57:51;16.02;;;11.05;;
24483;SDS011;12643;51.620;7.548;2023-04-15T04:00:21;14.82;;;11.10;;
24483;SDS011;12643;51.620;7.548;2023-04-15T04:02:50;16.67;;;10.93;;
24483;SDS011;12643;51.620;7.548;2023-04-15T04:05:18;17.98;;;11.90;;
24483;SDS011;12643;51.620;7.548;2023-04-15T04:07:45;14.90;;;10.95;;
24483;SDS011;12643;51.620;7.548;2023-04-15T04:10:14;16.05;;;10.30;;
24483;SDS011;12643;51.620;7.548;2023-04-15T04:12:44;16.30;;;11.48;;
24483;SDS011;12643;51.620;7.548;2023-04-15T04:15:13;16.38;;;12.30;;
24483;SDS011;12643;51.620;7.548;2023-04-15T04:17:43;19.50;;;11.20;;
24483;SDS011;12643;51.620;7.548;2023-04-15T04:20:10;13.27;;;10.88;;
24483;SDS011;12643;51.620;7.548;2023-04-15T04:22:42;13.95;;;10.18;;
24483;SDS011;12643;51.620;7.548;2023-04-15T04:25:10;16.00;;;11.35;;
24483;SDS011;12643;51.620;7.548;2023-04-15T04:27:39;14.80;;;10.85;;
24483;SDS011;12643;51.620;7.548;2023-04-15T04:30:10;21.15;;;12.30;;
24483;SDS011;12643;51.620;7.548;2023-04-15T04:32:40;15.23;;;11.52;;
24483;SDS011;12643;51.620;7.548;2023-04-15T04:35:09;18.25;;;11.60;;
24483;SDS011;12643;51.620;7.548;2023-04-15T04:37:38;16.45;;;11.57;;
24483;SDS011;12643;51.620;7.548;2023-04-15T04:40:07;17.50;;;12.43;;
24483;SDS011;12643;51.620;7.548;2023-04-15T04:42:37;15.05;;;11.30;;
24483;SDS011;12643;51.620;7.548;2023-04-15T04:45:06;17.20;;;11.18;;
24483;SDS011;12643;51.620;7.548;2023-04-15T04:47:34;13.93;;;10.38;;
24483;SDS011;12643;51.620;7.548;2023-04-15T04:50:04;15.63;;;11.98;;
24483;SDS011;12643;51.620;7.548;2023-04-15T04:52:38;15.52;;;11.65;;
24483;SDS011;12643;51.620;7.548;2023-04-15T04:55:06;14.38;;;10.75;;
24483;SDS011;12643;51.620;7.548;2023-04-15T04:57:39;13.15;;;10.45;;
24483;SDS011;12643;51.620;7.548;2023-04-15T05:00:10;13.38;;;10.75;;
24483;SDS011;12643;51.620;7.548;2023-04-15T05:02:40;13.23;;;10.85;;
24483;SDS011;12643;51.620;7.548;2023-04-15T05:05:08;13.20;;;11.00;;
24483;SDS011;12643;51.620;7.548;2023-04-15T05:07:40;14.82;;;11.75;;
24483;SDS011;12643;51.620;7.548;2023-04-15T05:10:09;17.05;;;12.57;;
24483;SDS011;12643;51.620;7.548;2023-04-15T05:12:37;16.35;;;11.48;;
24483;SDS011;12643;51.620;7.548;2023-04-15T05:15:06;15.25;;;11.27;;
24483;SDS011;12643;51.620;7.548;2023-04-15T05:17:35;16.00;;;11.10;;
24483;SDS011;12643;51.620;7.548;2023-04-15T05:20:03;15.25;;;11.45;;
24483;SDS011;12643;51.620;7.548;2023-04-15T05:22:32;18.45;;;12.25;;
24483;SDS011;12643;51.620;7.548;2023-04-15T05:25:02;13.18;;;11.23;;
24483;SDS011;12643;51.620;7.548;2023-04-15T05:27:30;13.60;;;11.00;;
24483;SDS011;12643;51.620;7.548;2023-04-15T05:29:58;22.60;;;15.05;;
24483;SDS011;12643;51.620;7.548;2023-04-15T05:32:26;38.53;;;24.02;;
24483;SDS011;12643;51.620;7.548;2023-04-15T05:34:55;53.50;;;30.80;;
24483;SDS011;12643;51.620;7.548;2023-04-15T05:37:23;44.92;;;28.48;;
24483;SDS011;12643;51.620;7.548;2023-04-15T05:39:55;37.28;;;24.92;;
24483;SDS011;12643;51.620;7.548;2023-04-15T05:44:53;35.13;;;21.70;;
24483;SDS011;12643;51.620;7.548;2023-04-15T05:47:22;30.55;;;19.17;;
24483;SDS011;12643;51.620;7.548;2023-04-15T05:49:50;23.55;;;15.73;;
24483;SDS011;12643;51.620;7.548;2023-04-15T05:52:21;26.00;;;16.15;;
24483;SDS011;12643;51.620;7.548;2023-04-15T05:54:48;20.40;;;15.20;;
24483;SDS011;12643;51.620;7.548;2023-04-15T05:57:16;24.00;;;15.90;;
24483;SDS011;12643;51.620;7.548;2023-04-15T05:59:46;20.67;;;15.48;;
24483;SDS011;12643;51.620;7.548;2023-04-15T06:04:45;22.55;;;16.15;;
24483;SDS011;12643;51.620;7.548;2023-04-15T06:07:14;20.90;;;15.60;;
24483;SDS011;12643;51.620;7.548;2023-04-15T06:09:42;23.25;;;17.08;;
24483;SDS011;12643;51.620;7.548;2023-04-15T06:12:10;22.35;;;16.50;;
24483;SDS011;12643;51.620;7.548;2023-04-15T06:14:38;23.33;;;16.52;;
24483;SDS011;12643;51.620;7.548;2023-04-15T06:17:08;22.30;;;17.17;;
24483;SDS011;12643;51.620;7.548;2023-04-15T06:19:39;20.55;;;15.98;;
24483;SDS011;12643;51.620;7.548;2023-04-15T06:22:08;19.10;;;15.15;;
24483;SDS011;12643;51.620;7.548;2023-04-15T06:24:36;19.25;;;15.25;;
24483;SDS011;12643;51.620;7.548;2023-04-15T06:27:04;18.55;;;14.93;;
24483;SDS011;12643;51.620;7.548;2023-04-15T06:29:32;21.25;;;15.95;;
24483;SDS011;12643;51.620;7.548;2023-04-15T06:32:00;19.23;;;14.40;;
24483;SDS011;12643;51.620;7.548;2023-04-15T06:34:30;20.85;;;15.68;;
24483;SDS011;12643;51.620;7.548;2023-04-15T06:37:04;22.90;;;16.20;;
24483;SDS011;12643;51.620;7.548;2023-04-15T06:39:33;19.35;;;15.25;;
24483;SDS011;12643;51.620;7.548;2023-04-15T06:42:02;19.83;;;14.75;;
24483;SDS011;12643;51.620;7.548;2023-04-15T06:44:31;16.70;;;14.15;;
24483;SDS011;12643;51.620;7.548;2023-04-15T06:47:01;22.10;;;15.18;;
24483;SDS011;12643;51.620;7.548;2023-04-15T06:49:30;19.25;;;14.23;;
24483;SDS011;12643;51.620;7.548;2023-04-15T06:52:01;19.60;;;15.45;;
24483;SDS011;12643;51.620;7.548;2023-04-15T06:54:29;21.30;;;14.73;;
24483;SDS011;12643;51.620;7.548;2023-04-15T06:56:59;19.98;;;13.90;;
24483;SDS011;12643;51.620;7.548;2023-04-15T06:59:28;18.65;;;14.48;;
24483;SDS011;12643;51.620;7.548;2023-04-15T07:01:55;18.20;;;13.90;;
24483;SDS011;12643;51.620;7.548;2023-04-15T07:04:23;19.20;;;14.73;;
24483;SDS011;12643;51.620;7.548;2023-04-15T07:06:54;20.10;;;14.95;;
24483;SDS011;12643;51.620;7.548;2023-04-15T07:09:22;19.75;;;14.43;;
24483;SDS011;12643;51.620;7.548;2023-04-15T07:11:51;20.13;;;14.93;;
24483;SDS011;12643;51.620;7.548;2023-04-15T07:14:19;19.65;;;14.40;;
24483;SDS011;12643;51.620;7.548;2023-04-15T07:16:53;19.73;;;13.15;;
24483;SDS011;12643;51.620;7.548;2023-04-15T07:19:44;21.88;;;15.38;;
24483;SDS011;12643;51.620;7.548;2023-04-15T07:32:29;21.25;;;15.07;;
24483;SDS011;12643;51.620;7.548;2023-04-15T07:34:58;18.27;;;13.82;;
24483;SDS011;12643;51.620;7.548;2023-04-15T07:37:33;19.70;;;14.60;;
24483;SDS011;12643;51.620;7.548;2023-04-15T07:40:01;19.98;;;14.07;;
24483;SDS011;12643;51.620;7.548;2023-04-15T07:42:33;19.13;;;13.73;;
24483;SDS011;12643;51.620;7.548;2023-04-15T07:45:03;17.80;;;12.48;;
24483;SDS011;12643;51.620;7.548;2023-04-15T07:47:35;21.30;;;12.18;;
24483;SDS011;12643;51.620;7.548;2023-04-15T07:50:06;17.88;;;12.95;;
24483;SDS011;12643;51.620;7.548;2023-04-15T07:52:35;16.83;;;12.18;;
24483;SDS011;12643;51.620;7.548;2023-04-15T07:55:05;21.27;;;13.35;;
24483;SDS011;12643;51.620;7.548;2023-04-15T07:57:34;16.33;;;11.50;;
24483;SDS011;12643;51.620;7.548;2023-04-15T08:00:02;15.95;;;11.43;;
24483;SDS011;12643;51.620;7.548;2023-04-15T08:02:34;17.75;;;12.55;;
24483;SDS011;12643;51.620;7.548;2023-04-15T08:07:33;18.95;;;11.77;;
24483;SDS011;12643;51.620;7.548;2023-04-15T08:10:05;18.33;;;12.20;;
24483;SDS011;12643;51.620;7.548;2023-04-15T08:15:06;13.60;;;10.18;;
24483;SDS011;12643;51.620;7.548;2023-04-15T08:17:39;18.17;;;12.18;;
24483;SDS011;12643;51.620;7.548;2023-04-15T08:20:08;16.42;;;11.25;;
24483;SDS011;12643;51.620;7.548;2023-04-15T08:22:39;17.17;;;10.98;;
24483;SDS011;12643;51.620;7.548;2023-04-15T08:25:12;14.63;;;10.45;;
24483;SDS011;12643;51.620;7.548;2023-04-15T08:27:41;15.07;;;10.68;;
24483;SDS011;12643;51.620;7.548;2023-04-15T08:30:11;13.55;;;10.43;;
24483;SDS011;12643;51.620;7.548;2023-04-15T08:32:42;13.48;;;10.40;;
24483;SDS011;12643;51.620;7.548;2023-04-15T08:35:12;12.70;;;10.07;;
24483;SDS011;12643;51.620;7.548;2023-04-15T08:37:41;12.73;;;10.32;;
24483;SDS011;12643;51.620;7.548;2023-04-15T08:40:11;12.95;;;10.30;;
24483;SDS011;12643;51.620;7.548;2023-04-15T08:45:12;13.60;;;10.43;;
24483;SDS011;12643;51.620;7.548;2023-04-15T08:47:43;13.45;;;10.43;;
24483;SDS011;12643;51.620;7.548;2023-04-15T08:50:14;14.55;;;10.18;;
24483;SDS011;12643;51.620;7.548;2023-04-15T08:52:44;14.02;;;11.70;;
24483;SDS011;12643;51.620;7.548;2023-04-15T08:55:13;18.17;;;10.48;;
24483;SDS011;12643;51.620;7.548;2023-04-15T08:57:45;13.85;;;11.77;;
24483;SDS011;12643;51.620;7.548;2023-04-15T09:00:15;15.25;;;12.18;;
24483;SDS011;12643;51.620;7.548;2023-04-15T09:02:51;14.38;;;11.80;;
24483;SDS011;12643;51.620;7.548;2023-04-15T09:05:21;14.00;;;11.27;;
24483;SDS011;12643;51.620;7.548;2023-04-15T09:07:57;15.10;;;11.48;;
24483;SDS011;12643;51.620;7.548;2023-04-15T09:10:28;14.03;;;10.93;;
24483;SDS011;12643;51.620;7.548;2023-04-15T09:13:01;14.80;;;11.65;;
24483;SDS011;12643;51.620;7.548;2023-04-15T09:15:30;17.45;;;12.38;;
24483;SDS011;12643;51.620;7.548;2023-04-15T09:20:39;14.48;;;11.02;;
24483;SDS011;12643;51.620;7.548;2023-04-15T09:23:11;13.75;;;10.43;;
24483;SDS011;12643;51.620;7.548;2023-04-15T09:25:44;16.38;;;10.75;;
24483;SDS011;12643;51.620;7.548;2023-04-15T09:28:22;13.82;;;10.88;;
24483;SDS011;12643;51.620;7.548;2023-04-15T09:30:56;13.90;;;10.60;;
24483;SDS011;12643;51.620;7.548;2023-04-15T09:33:52;14.00;;;9.65;;
24483;SDS011;12643;51.620;7.548;2023-04-15T09:36:23;14.30;;;10.52;;
24483;SDS011;12643;51.620;7.548;2023-04-15T09:41:24;14.63;;;9.98;;
24483;SDS011;12643;51.620;7.548;2023-04-15T09:44:03;13.63;;;9.43;;
24483;SDS011;12643;51.620;7.548;2023-04-15T09:46:43;12.77;;;9.55;;
24483;SDS011;12643;51.620;7.548;2023-04-15T09:49:14;13.23;;;9.98;;
24483;SDS011;12643;51.620;7.548;2023-04-15T09:51:43;17.97;;;10.40;;
24483;SDS011;12643;51.620;7.548;2023-04-15T09:54:18;13.45;;;10.18;;
24483;SDS011;12643;51.620;7.548;2023-04-15T09:56:47;16.95;;;10.57;;
24483;SDS011;12643;51.620;7.548;2023-04-15T09:59:16;15.18;;;10.50;;
24483;SDS011;12643;51.620;7.548;2023-04-15T10:01:58;15.13;;;10.73;;
24483;SDS011;12643;51.620;7.548;2023-04-15T10:04:31;12.48;;;9.70;;
24483;SDS011;12643;51.620;7.548;2023-04-15T10:07:04;12.88;;;9.25;;
24483;SDS011;12643;51.620;7.548;2023-04-15T10:09:34;16.90;;;10.30;;
24483;SDS011;12643;51.620;7.548;2023-04-15T10:12:04;15.30;;;10.43;;
24483;SDS011;12643;51.620;7.548;2023-04-15T10:14:36;14.02;;;9.27;;
24483;SDS011;12643;51.620;7.548;2023-04-15T10:17:07;14.13;;;9.93;;
24483;SDS011;12643;51.620;7.548;2023-04-15T10:22:13;12.85;;;9.25;;
24483;SDS011;12643;51.620;7.548;2023-04-15T10:24:43;12.63;;;9.30;;
24483;SDS011;12643;51.620;7.548;2023-04-15T10:27:12;16.73;;;9.82;;
24483;SDS011;12643;51.620;7.548;2023-04-15T10:29:48;12.63;;;9.32;;
24483;SDS011;12643;51.620;7.548;2023-04-15T10:32:18;11.77;;;8.25;;
24483;SDS011;12643;51.620;7.548;2023-04-15T10:34:54;14.02;;;9.07;;
24483;SDS011;12643;51.620;7.548;2023-04-15T10:37:47;10.75;;;8.30;;
24483;SDS011;12643;51.620;7.548;2023-04-15T10:43:07;13.90;;;9.35;;
24483;SDS011;12643;51.620;7.548;2023-04-15T10:45:52;10.98;;;8.23;;
24483;SDS011;12643;51.620;7.548;2023-04-15T10:48:23;10.35;;;7.88;;
24483;SDS011;12643;51.620;7.548;2023-04-15T10:50:56;12.13;;;8.77;;
24483;SDS011;12643;51.620;7.548;2023-04-15T10:53:30;11.95;;;8.05;;
24483;SDS011;12643;51.620;7.548;2023-04-15T10:55:59;13.27;;;8.93;;
24483;SDS011;12643;51.620;7.548;2023-04-15T11:01:10;10.13;;;7.65;;
24483;SDS011;12643;51.620;7.548;2023-04-15T11:03:41;10.43;;;8.53;;
24483;SDS011;12643;51.620;7.548;2023-04-15T11:06:12;10.75;;;8.23;;
24483;SDS011;12643;51.620;7.548;2023-04-15T11:08:54;10.55;;;8.13;;
24483;SDS011;12643;51.620;7.548;2023-04-15T11:14:29;13.63;;;8.52;;
24483;SDS011;12643;51.620;7.548;2023-04-15T11:19:34;10.52;;;7.25;;
24483;SDS011;12643;51.620;7.548;2023-04-15T11:25:31;10.45;;;7.45;;
24483;SDS011;12643;51.620;7.548;2023-04-15T11:28:29;11.98;;;8.00;;
24483;SDS011;12643;51.620;7.548;2023-04-15T11:31:28;11.40;;;7.75;;
24483;SDS011;12643;51.620;7.548;2023-04-15T11:34:40;10.35;;;7.72;;
24483;SDS011;12643;51.620;7.548;2023-04-15T11:37:52;10.15;;;7.47;;
24483;SDS011;12643;51.620;7.548;2023-04-15T11:40:22;12.32;;;7.93;;
24483;SDS011;12643;51.620;7.548;2023-04-15T11:43:02;10.52;;;8.25;;
24483;SDS011;12643;51.620;7.548;2023-04-15T11:45:33;11.48;;;7.60;;
24483;SDS011;12643;51.620;7.548;2023-04-15T11:48:04;11.27;;;8.40;;
24483;SDS011;12643;51.620;7.548;2023-04-15T11:50:34;12.00;;;8.63;;
24483;SDS011;12643;51.620;7.548;2023-04-15T11:53:08;11.20;;;8.30;;
24483;SDS011;12643;51.620;7.548;2023-04-15T11:55:51;13.73;;;8.95;;
24483;SDS011;12643;51.620;7.548;2023-04-15T11:58:21;11.18;;;8.95;;
24483;SDS011;12643;51.620;7.548;2023-04-15T12:00:54;13.23;;;8.93;;
24483;SDS011;12643;51.620;7.548;2023-04-15T12:03:24;9.98;;;7.70;;
24483;SDS011;12643;51.620;7.548;2023-04-15T12:06:04;11.82;;;8.88;;
24483;SDS011;12643;51.620;7.548;2023-04-15T12:08:51;13.40;;;8.60;;
24483;SDS011;12643;51.620;7.548;2023-04-15T12:11:28;10.05;;;7.70;;
24483;SDS011;12643;51.620;7.548;2023-04-15T12:14:07;10.77;;;6.93;;
24483;SDS011;12643;51.620;7.548;2023-04-15T12:16:41;9.98;;;8.02;;
24483;SDS011;12643;51.620;7.548;2023-04-15T12:19:21;9.63;;;7.78;;
24483;SDS011;12643;51.620;7.548;2023-04-15T12:21:51;10.10;;;7.85;;
24483;SDS011;12643;51.620;7.548;2023-04-15T12:24:32;8.95;;;7.53;;
24483;SDS011;12643;51.620;7.548;2023-04-15T12:27:14;10.73;;;8.10;;
24483;SDS011;12643;51.620;7.548;2023-04-15T12:29:42;10.25;;;7.53;;
24483;SDS011;12643;51.620;7.548;2023-04-15T12:32:15;10.63;;;8.02;;
24483;SDS011;12643;51.620;7.548;2023-04-15T12:34:48;11.80;;;7.70;;
24483;SDS011;12643;51.620;7.548;2023-04-15T12:37:17;11.48;;;8.35;;
24483;SDS011;12643;51.620;7.548;2023-04-15T12:39:48;11.43;;;8.18;;
24483;SDS011;12643;51.620;7.548;2023-04-15T12:42:19;10.63;;;8.25;;
24483;SDS011;12643;51.620;7.548;2023-04-15T12:44:53;10.02;;;8.02;;
24483;SDS011;12643;51.620;7.548;2023-04-15T12:47:27;11.13;;;8.40;;
24483;SDS011;12643;51.620;7.548;2023-04-15T12:49:58;9.25;;;8.23;;
24483;SDS011;12643;51.620;7.548;2023-04-15T12:52:28;9.30;;;7.60;;
24483;SDS011;12643;51.620;7.548;2023-04-15T12:55:06;9.57;;;7.10;;
24483;SDS011;12643;51.620;7.548;2023-04-15T12:57:35;10.45;;;8.32;;
24483;SDS011;12643;51.620;7.548;2023-04-15T13:00:05;7.47;;;6.25;;
24483;SDS011;12643;51.620;7.548;2023-04-15T13:02:39;10.38;;;7.60;;
24483;SDS011;12643;51.620;7.548;2023-04-15T13:05:13;9.13;;;6.95;;
24483;SDS011;12643;51.620;7.548;2023-04-15T13:07:42;9.15;;;7.25;;
24483;SDS011;12643;51.620;7.548;2023-04-15T13:10:14;7.85;;;6.30;;
24483;SDS011;12643;51.620;7.548;2023-04-15T13:12:47;7.85;;;5.82;;
24483;SDS011;12643;51.620;7.548;2023-04-15T13:17:48;6.90;;;5.33;;
24483;SDS011;12643;51.620;7.548;2023-04-15T13:20:17;8.35;;;7.00;;
24483;SDS011;12643;51.620;7.548;2023-04-15T13:22:54;5.93;;;5.32;;
24483;SDS011;12643;51.620;7.548;2023-04-15T13:25:27;10.05;;;5.68;;
24483;SDS011;12643;51.620;7.548;2023-04-15T13:27:58;5.72;;;5.13;;
24483;SDS011;12643;51.620;7.548;2023-04-15T13:30:27;8.00;;;5.57;;
24483;SDS011;12643;51.620;7.548;2023-04-15T13:32:57;6.13;;;5.15;;
24483;SDS011;12643;51.620;7.548;2023-04-15T13:35:34;9.50;;;5.78;;
24483;SDS011;12643;51.620;7.548;2023-04-15T13:38:06;7.53;;;5.05;;
24483;SDS011;12643;51.620;7.548;2023-04-15T13:40:37;7.88;;;4.93;;
24483;SDS011;12643;51.620;7.548;2023-04-15T13:43:05;6.35;;;5.00;;
24483;SDS011;12643;51.620;7.548;2023-04-15T13:45:35;6.30;;;5.40;;
24483;SDS011;12643;51.620;7.548;2023-04-15T13:48:04;7.20;;;5.32;;
24483;SDS011;12643;51.620;7.548;2023-04-15T13:50:32;6.10;;;4.30;;
24483;SDS011;12643;51.620;7.548;2023-04-15T13:53:00;6.32;;;5.22;;
24483;SDS011;12643;51.620;7.548;2023-04-15T13:55:28;9.90;;;5.05;;
24483;SDS011;12643;51.620;7.548;2023-04-15T13:57:57;6.63;;;4.60;;
24483;SDS011;12643;51.620;7.548;2023-04-15T14:00:25;9.07;;;4.82;;
24483;SDS011;12643;51.620;7.548;2023-04-15T14:02:53;4.47;;;4.07;;
24483;SDS011;12643;51.620;7.548;2023-04-15T14:05:20;7.32;;;4.00;;
24483;SDS011;12643;51.620;7.548;2023-04-15T14:07:48;6.50;;;4.57;;
24483;SDS011;12643;51.620;7.548;2023-04-15T14:10:16;5.57;;;4.72;;
24483;SDS011;12643;51.620;7.548;2023-04-15T14:12:44;7.97;;;5.57;;
24483;SDS011;12643;51.620;7.548;2023-04-15T14:15:13;7.57;;;5.25;;
24483;SDS011;12643;51.620;7.548;2023-04-15T14:17:41;5.82;;;4.82;;
24483;SDS011;12643;51.620;7.548;2023-04-15T14:20:09;6.60;;;4.63;;
24483;SDS011;12643;51.620;7.548;2023-04-15T14:22:38;8.82;;;5.10;;
24483;SDS011;12643;51.620;7.548;2023-04-15T14:25:07;9.57;;;4.82;;
24483;SDS011;12643;51.620;7.548;2023-04-15T14:27:36;5.80;;;5.05;;
24483;SDS011;12643;51.620;7.548;2023-04-15T14:30:04;6.45;;;4.80;;
24483;SDS011;12643;51.620;7.548;2023-04-15T14:32:34;7.78;;;5.22;;
24483;SDS011;12643;51.620;7.548;2023-04-15T14:35:02;6.30;;;4.32;;
24483;SDS011;12643;51.620;7.548;2023-04-15T14:37:31;6.30;;;4.50;;
24483;SDS011;12643;51.620;7.548;2023-04-15T14:40:06;6.15;;;5.03;;
24483;SDS011;12643;51.620;7.548;2023-04-15T14:42:36;6.22;;;4.40;;
24483;SDS011;12643;51.620;7.548;2023-04-15T14:47:51;5.35;;;4.72;;
24483;SDS011;12643;51.620;7.548;2023-04-15T14:50:20;7.80;;;5.05;;
24483;SDS011;12643;51.620;7.548;2023-04-15T14:52:53;6.70;;;4.88;;
24483;SDS011;12643;51.620;7.548;2023-04-15T14:55:22;6.07;;;4.25;;
24483;SDS011;12643;51.620;7.548;2023-04-15T14:57:55;6.97;;;4.68;;
24483;SDS011;12643;51.620;7.548;2023-04-15T15:00:33;7.22;;;5.30;;
24483;SDS011;12643;51.620;7.548;2023-04-15T15:03:09;7.35;;;4.82;;
24483;SDS011;12643;51.620;7.548;2023-04-15T15:05:40;7.57;;;5.47;;
24483;SDS011;12643;51.620;7.548;2023-04-15T15:08:23;5.70;;;5.10;;
24483;SDS011;12643;51.620;7.548;2023-04-15T15:10:57;8.05;;;5.68;;
24483;SDS011;12643;51.620;7.548;2023-04-15T15:13:26;8.23;;;6.00;;
24483;SDS011;12643;51.620;7.548;2023-04-15T15:15:57;11.98;;;5.97;;
24483;SDS011;12643;51.620;7.548;2023-04-15T15:18:30;10.00;;;6.50;;
24483;SDS011;12643;51.620;7.548;2023-04-15T15:21:02;8.18;;;6.13;;
24483;SDS011;12643;51.620;7.548;2023-04-15T15:23:31;8.68;;;5.80;;
24483;SDS011;12643;51.620;7.548;2023-04-15T15:26:00;8.82;;;6.60;;
24483;SDS011;12643;51.620;7.548;2023-04-15T15:28:30;10.45;;;7.00;;
24483;SDS011;12643;51.620;7.548;2023-04-15T15:30:59;10.50;;;6.38;;
24483;SDS011;12643;51.620;7.548;2023-04-15T15:33:33;7.47;;;6.53;;
24483;SDS011;12643;51.620;7.548;2023-04-15T15:36:17;7.45;;;5.85;;
24483;SDS011;12643;51.620;7.548;2023-04-15T15:38:46;8.35;;;6.30;;
24483;SDS011;12643;51.620;7.548;2023-04-15T15:41:27;6.38;;;5.45;;
24483;SDS011;12643;51.620;7.548;2023-04-15T15:43:58;8.23;;;5.57;;
24483;SDS011;12643;51.620;7.548;2023-04-15T15:46:27;5.35;;;4.85;;
24483;SDS011;12643;51.620;7.548;2023-04-15T15:48:59;6.68;;;4.70;;
24483;SDS011;12643;51.620;7.548;2023-04-15T15:51:29;5.68;;;4.30;;
24483;SDS011;12643;51.620;7.548;2023-04-15T15:53:58;9.57;;;5.20;;